sensor_id;sensor_type;location;lat;lon;timestamp;P1;durP1;ratioP1;P2;durP2;ratioP2
22486;SDS011;11410;53.046;10.512;2022-09-09T00:02:16;5.88;;;3.00;;
22486;SDS011;11410;53.046;10.512;2022-09-09T00:05:59;7.82;;;2.65;;
22486;SDS011;11410;53.046;10.512;2022-09-09T00:14:35;5.15;;;2.80;;
22486;SDS011;11410;53.046;10.512;2022-09-09T00:31:25;3.00;;;1.50;;
22486;SDS011;11410;53.046;10.512;2022-09-09T00:35:37;3.90;;;2.55;;
22486;SDS011;11410;53.046;10.512;2022-09-09T00:39:42;6.40;;;4.07;;
22486;SDS011;11410;53.046;10.512;2022-09-09T00:43:43;2.42;;;1.75;;
22486;SDS011;11410;53.046;10.512;2022-09-09T00:47:51;3.58;;;2.63;;
22486;SDS011;11410;53.046;10.512;2022-09-09T00:56:04;4.97;;;2.95;;
22486;SDS011;11410;53.046;10.512;2022-09-09T01:00:21;6.25;;;3.35;;
22486;SDS011;11410;53.046;10.512;2022-09-09T01:04:26;5.63;;;3.05;;
22486;SDS011;11410;53.046;10.512;2022-09-09T01:12:41;4.63;;;2.72;;
22486;SDS011;11410;53.046;10.512;2022-09-09T01:16:43;4.45;;;2.53;;
22486;SDS011;11410;53.046;10.512;2022-09-09T01:25:29;7.55;;;2.72;;
22486;SDS011;11410;53.046;10.512;2022-09-09T01:29:31;6.10;;;3.63;;
22486;SDS011;11410;53.046;10.512;2022-09-09T01:33:32;7.13;;;2.60;;
22486;SDS011;11410;53.046;10.512;2022-09-09T01:37:34;6.10;;;2.83;;
22486;SDS011;11410;53.046;10.512;2022-09-09T01:41:35;4.13;;;2.60;;
22486;SDS011;11410;53.046;10.512;2022-09-09T01:45:36;8.45;;;3.58;;
22486;SDS011;11410;53.046;10.512;2022-09-09T01:49:39;4.93;;;3.33;;
22486;SDS011;11410;53.046;10.512;2022-09-09T01:53:40;2.88;;;2.47;;
22486;SDS011;11410;53.046;10.512;2022-09-09T01:58:29;4.35;;;2.13;;
22486;SDS011;11410;53.046;10.512;2022-09-09T02:02:17;3.45;;;1.80;;
22486;SDS011;11410;53.046;10.512;2022-09-09T02:14:55;3.78;;;1.92;;
22486;SDS011;11410;53.046;10.512;2022-09-09T02:19:01;2.85;;;1.58;;
22486;SDS011;11410;53.046;10.512;2022-09-09T02:23:04;2.35;;;1.75;;
22486;SDS011;11410;53.046;10.512;2022-09-09T02:27:06;4.53;;;1.55;;
22486;SDS011;11410;53.046;10.512;2022-09-09T02:31:09;1.75;;;1.48;;
22486;SDS011;11410;53.046;10.512;2022-09-09T02:35:15;3.70;;;1.63;;
22486;SDS011;11410;53.046;10.512;2022-09-09T02:39:18;4.00;;;1.67;;
22486;SDS011;11410;53.046;10.512;2022-09-09T02:47:33;2.15;;;1.60;;
22486;SDS011;11410;53.046;10.512;2022-09-09T02:59:44;1.70;;;1.60;;
22486;SDS011;11410;53.046;10.512;2022-09-09T03:03:46;2.60;;;1.58;;
22486;SDS011;11410;53.046;10.512;2022-09-09T03:07:47;2.00;;;1.75;;
22486;SDS011;11410;53.046;10.512;2022-09-09T03:11:49;2.95;;;1.38;;
22486;SDS011;11410;53.046;10.512;2022-09-09T03:15:50;2.03;;;1.17;;
22486;SDS011;11410;53.046;10.512;2022-09-09T03:19:52;2.75;;;1.15;;
22486;SDS011;11410;53.046;10.512;2022-09-09T03:23:55;2.80;;;1.52;;
22486;SDS011;11410;53.046;10.512;2022-09-09T03:27:58;1.98;;;1.02;;
22486;SDS011;11410;53.046;10.512;2022-09-09T03:36:01;3.22;;;1.25;;
22486;SDS011;11410;53.046;10.512;2022-09-09T03:40:02;1.77;;;1.40;;
22486;SDS011;11410;53.046;10.512;2022-09-09T03:44:04;2.25;;;0.80;;
22486;SDS011;11410;53.046;10.512;2022-09-09T03:48:05;1.88;;;1.05;;
22486;SDS011;11410;53.046;10.512;2022-09-09T03:52:08;2.95;;;2.50;;
22486;SDS011;11410;53.046;10.512;2022-09-09T03:56:09;1.55;;;1.10;;
22486;SDS011;11410;53.046;10.512;2022-09-09T04:00:11;3.35;;;2.53;;
22486;SDS011;11410;53.046;10.512;2022-09-09T04:04:12;1.67;;;1.58;;
22486;SDS011;11410;53.046;10.512;2022-09-09T04:08:14;0.95;;;0.70;;
22486;SDS011;11410;53.046;10.512;2022-09-09T04:12:15;2.33;;;0.80;;
22486;SDS011;11410;53.046;10.512;2022-09-09T04:16:17;1.75;;;0.73;;
22486;SDS011;11410;53.046;10.512;2022-09-09T04:20:19;1.20;;;1.10;;
22486;SDS011;11410;53.046;10.512;2022-09-09T04:28:23;4.05;;;1.45;;
22486;SDS011;11410;53.046;10.512;2022-09-09T04:32:24;1.98;;;1.00;;
22486;SDS011;11410;53.046;10.512;2022-09-09T04:36:28;2.20;;;1.13;;
22486;SDS011;11410;53.046;10.512;2022-09-09T04:40:30;2.72;;;0.80;;
22486;SDS011;11410;53.046;10.512;2022-09-09T04:44:32;1.05;;;0.70;;
22486;SDS011;11410;53.046;10.512;2022-09-09T04:52:35;4.28;;;1.13;;
22486;SDS011;11410;53.046;10.512;2022-09-09T04:56:36;1.88;;;1.08;;
22486;SDS011;11410;53.046;10.512;2022-09-09T05:00:37;1.13;;;0.73;;
22486;SDS011;11410;53.046;10.512;2022-09-09T05:04:39;2.00;;;0.90;;
22486;SDS011;11410;53.046;10.512;2022-09-09T05:08:40;0.50;;;0.45;;
22486;SDS011;11410;53.046;10.512;2022-09-09T05:12:42;1.70;;;1.20;;
22486;SDS011;11410;53.046;10.512;2022-09-09T05:16:46;2.80;;;1.55;;
22486;SDS011;11410;53.046;10.512;2022-09-09T05:20:50;1.40;;;0.98;;
22486;SDS011;11410;53.046;10.512;2022-09-09T05:24:52;1.05;;;1.05;;
22486;SDS011;11410;53.046;10.512;2022-09-09T05:28:53;0.50;;;0.40;;
22486;SDS011;11410;53.046;10.512;2022-09-09T05:32:58;1.73;;;1.08;;
22486;SDS011;11410;53.046;10.512;2022-09-09T05:36:59;2.17;;;1.25;;
22486;SDS011;11410;53.046;10.512;2022-09-09T05:41:01;1.58;;;0.80;;
22486;SDS011;11410;53.046;10.512;2022-09-09T05:45:02;0.93;;;0.80;;
22486;SDS011;11410;53.046;10.512;2022-09-09T05:53:06;5.90;;;2.05;;
22486;SDS011;11410;53.046;10.512;2022-09-09T05:57:08;1.38;;;1.10;;
22486;SDS011;11410;53.046;10.512;2022-09-09T06:01:12;0.93;;;0.93;;
22486;SDS011;11410;53.046;10.512;2022-09-09T06:05:14;0.75;;;0.75;;
22486;SDS011;11410;53.046;10.512;2022-09-09T06:09:16;0.68;;;0.65;;
22486;SDS011;11410;53.046;10.512;2022-09-09T06:17:19;1.88;;;0.77;;
22486;SDS011;11410;53.046;10.512;2022-09-09T06:21:23;0.47;;;0.47;;
22486;SDS011;11410;53.046;10.512;2022-09-09T06:25:25;0.68;;;0.68;;
22486;SDS011;11410;53.046;10.512;2022-09-09T06:29:26;1.55;;;1.40;;
22486;SDS011;11410;53.046;10.512;2022-09-09T06:37:29;1.40;;;0.73;;
22486;SDS011;11410;53.046;10.512;2022-09-09T06:45:32;0.80;;;0.80;;
22486;SDS011;11410;53.046;10.512;2022-09-09T06:53:37;1.17;;;1.08;;
22486;SDS011;11410;53.046;10.512;2022-09-09T06:57:39;0.50;;;0.50;;
22486;SDS011;11410;53.046;10.512;2022-09-09T07:01:41;0.90;;;0.85;;
22486;SDS011;11410;53.046;10.512;2022-09-09T07:05:53;2.13;;;0.82;;
22486;SDS011;11410;53.046;10.512;2022-09-09T07:09:54;1.73;;;0.98;;
22486;SDS011;11410;53.046;10.512;2022-09-09T07:22:02;3.60;;;0.80;;
22486;SDS011;11410;53.046;10.512;2022-09-09T07:26:08;2.08;;;0.60;;
22486;SDS011;11410;53.046;10.512;2022-09-09T07:30:10;1.15;;;0.73;;
22486;SDS011;11410;53.046;10.512;2022-09-09T07:34:18;1.70;;;1.27;;
22486;SDS011;11410;53.046;10.512;2022-09-09T07:38:23;1.25;;;1.15;;
22486;SDS011;11410;53.046;10.512;2022-09-09T07:42:24;4.25;;;1.27;;
22486;SDS011;11410;53.046;10.512;2022-09-09T07:46:26;0.68;;;0.50;;
22486;SDS011;11410;53.046;10.512;2022-09-09T07:50:28;1.00;;;0.90;;
22486;SDS011;11410;53.046;10.512;2022-09-09T07:54:29;0.98;;;0.75;;
22486;SDS011;11410;53.046;10.512;2022-09-09T08:02:37;3.08;;;1.02;;
22486;SDS011;11410;53.046;10.512;2022-09-09T08:06:39;0.57;;;0.45;;
22486;SDS011;11410;53.046;10.512;2022-09-09T08:10:41;2.90;;;0.90;;
22486;SDS011;11410;53.046;10.512;2022-09-09T08:18:44;0.65;;;0.35;;
22486;SDS011;11410;53.046;10.512;2022-09-09T08:22:45;1.10;;;0.60;;
22486;SDS011;11410;53.046;10.512;2022-09-09T08:26:47;0.70;;;0.70;;
22486;SDS011;11410;53.046;10.512;2022-09-09T08:30:51;1.83;;;1.15;;
22486;SDS011;11410;53.046;10.512;2022-09-09T08:34:54;1.38;;;0.93;;
22486;SDS011;11410;53.046;10.512;2022-09-09T08:39:02;1.75;;;0.52;;
22486;SDS011;11410;53.046;10.512;2022-09-09T08:43:03;0.60;;;0.60;;
22486;SDS011;11410;53.046;10.512;2022-09-09T08:51:34;2.20;;;0.60;;
22486;SDS011;11410;53.046;10.512;2022-09-09T08:59:43;2.00;;;0.70;;
22486;SDS011;11410;53.046;10.512;2022-09-09T10:40:31;0.30;;;0.30;;
22486;SDS011;11410;53.046;10.512;2022-09-09T10:44:42;0.88;;;0.47;;
22486;SDS011;11410;53.046;10.512;2022-09-09T10:57:33;0.68;;;0.50;;
22486;SDS011;11410;53.046;10.512;2022-09-09T11:01:39;0.55;;;0.55;;
22486;SDS011;11410;53.046;10.512;2022-09-09T11:09:45;0.73;;;0.50;;
22486;SDS011;11410;53.046;10.512;2022-09-09T11:17:53;0.60;;;0.60;;
22486;SDS011;11410;53.046;10.512;2022-09-09T11:21:58;2.03;;;0.60;;
22486;SDS011;11410;53.046;10.512;2022-09-09T11:26:04;1.08;;;0.70;;
22486;SDS011;11410;53.046;10.512;2022-09-09T11:30:14;1.42;;;0.50;;
22486;SDS011;11410;53.046;10.512;2022-09-09T11:39:05;2.67;;;0.73;;
22486;SDS011;11410;53.046;10.512;2022-09-09T11:43:15;0.98;;;0.95;;
22486;SDS011;11410;53.046;10.512;2022-09-09T11:51:26;1.10;;;0.70;;
22486;SDS011;11410;53.046;10.512;2022-09-09T11:55:30;0.70;;;0.68;;
22486;SDS011;11410;53.046;10.512;2022-09-09T11:59:34;0.88;;;0.88;;
22486;SDS011;11410;53.046;10.512;2022-09-09T12:03:45;0.80;;;0.80;;
22486;SDS011;11410;53.046;10.512;2022-09-09T12:07:57;1.00;;;0.60;;
22486;SDS011;11410;53.046;10.512;2022-09-09T12:16:01;0.52;;;0.52;;
22486;SDS011;11410;53.046;10.512;2022-09-09T12:24:31;1.27;;;0.63;;
22486;SDS011;11410;53.046;10.512;2022-09-09T12:33:15;1.40;;;1.30;;
22486;SDS011;11410;53.046;10.512;2022-09-09T12:37:27;1.02;;;0.93;;
22486;SDS011;11410;53.046;10.512;2022-09-09T12:41:30;1.45;;;1.10;;
22486;SDS011;11410;53.046;10.512;2022-09-09T12:45:32;1.00;;;0.95;;
22486;SDS011;11410;53.046;10.512;2022-09-09T12:49:34;1.92;;;1.30;;
22486;SDS011;11410;53.046;10.512;2022-09-09T12:53:37;2.25;;;1.00;;
22486;SDS011;11410;53.046;10.512;2022-09-09T12:57:40;1.92;;;1.17;;
22486;SDS011;11410;53.046;10.512;2022-09-09T13:01:41;1.10;;;1.00;;
22486;SDS011;11410;53.046;10.512;2022-09-09T13:05:43;2.00;;;1.33;;
22486;SDS011;11410;53.046;10.512;2022-09-09T13:09:45;1.65;;;1.55;;
22486;SDS011;11410;53.046;10.512;2022-09-09T13:13:51;1.85;;;1.38;;
22486;SDS011;11410;53.046;10.512;2022-09-09T13:17:55;0.73;;;0.73;;
22486;SDS011;11410;53.046;10.512;2022-09-09T13:21:58;1.52;;;1.35;;
22486;SDS011;11410;53.046;10.512;2022-09-09T13:34:56;4.38;;;1.33;;
22486;SDS011;11410;53.046;10.512;2022-09-09T13:38:59;0.98;;;0.93;;
22486;SDS011;11410;53.046;10.512;2022-09-09T13:43:01;0.95;;;0.88;;
22486;SDS011;11410;53.046;10.512;2022-09-09T13:47:17;1.23;;;1.13;;
22486;SDS011;11410;53.046;10.512;2022-09-09T13:51:22;1.20;;;1.10;;
22486;SDS011;11410;53.046;10.512;2022-09-09T13:55:29;1.08;;;1.00;;
22486;SDS011;11410;53.046;10.512;2022-09-09T13:59:31;0.93;;;0.93;;
22486;SDS011;11410;53.046;10.512;2022-09-09T14:03:54;1.05;;;0.98;;
22486;SDS011;11410;53.046;10.512;2022-09-09T14:07:56;0.70;;;0.70;;
22486;SDS011;11410;53.046;10.512;2022-09-09T14:12:11;0.80;;;0.80;;
22486;SDS011;11410;53.046;10.512;2022-09-09T14:16:14;0.93;;;0.90;;
22486;SDS011;11410;53.046;10.512;2022-09-09T14:20:16;0.50;;;0.50;;
22486;SDS011;11410;53.046;10.512;2022-09-09T14:24:19;1.65;;;1.13;;
22486;SDS011;11410;53.046;10.512;2022-09-09T14:28:20;1.65;;;1.25;;
22486;SDS011;11410;53.046;10.512;2022-09-09T14:32:42;0.40;;;0.40;;
22486;SDS011;11410;53.046;10.512;2022-09-09T14:40:46;1.17;;;0.80;;
22486;SDS011;11410;53.046;10.512;2022-09-09T14:44:48;0.88;;;0.88;;
22486;SDS011;11410;53.046;10.512;2022-09-09T14:48:50;1.55;;;0.93;;
22486;SDS011;11410;53.046;10.512;2022-09-09T14:52:52;0.80;;;0.52;;
22486;SDS011;11410;53.046;10.512;2022-09-09T14:56:53;0.85;;;0.70;;
22486;SDS011;11410;53.046;10.512;2022-09-09T15:00:55;0.80;;;0.65;;
22486;SDS011;11410;53.046;10.512;2022-09-09T15:04:59;0.40;;;0.40;;
22486;SDS011;11410;53.046;10.512;2022-09-09T15:09:05;0.90;;;0.90;;
22486;SDS011;11410;53.046;10.512;2022-09-09T15:13:06;1.85;;;0.60;;
22486;SDS011;11410;53.046;10.512;2022-09-09T15:17:09;3.17;;;1.30;;
22486;SDS011;11410;53.046;10.512;2022-09-09T15:25:11;0.38;;;0.38;;
22486;SDS011;11410;53.046;10.512;2022-09-09T15:29:13;0.60;;;0.60;;
22486;SDS011;11410;53.046;10.512;2022-09-09T15:33:20;0.40;;;0.40;;
22486;SDS011;11410;53.046;10.512;2022-09-09T15:37:24;0.75;;;0.55;;
22486;SDS011;11410;53.046;10.512;2022-09-09T15:41:29;0.50;;;0.50;;
22486;SDS011;11410;53.046;10.512;2022-09-09T15:45:34;0.85;;;0.70;;
22486;SDS011;11410;53.046;10.512;2022-09-09T15:49:37;2.08;;;0.93;;
22486;SDS011;11410;53.046;10.512;2022-09-09T15:53:42;1.45;;;0.75;;
22486;SDS011;11410;53.046;10.512;2022-09-09T15:57:51;3.67;;;1.05;;
22486;SDS011;11410;53.046;10.512;2022-09-09T16:01:59;2.47;;;1.20;;
22486;SDS011;11410;53.046;10.512;2022-09-09T16:06:16;2.13;;;0.55;;
22486;SDS011;11410;53.046;10.512;2022-09-09T16:10:17;1.65;;;1.52;;
22486;SDS011;11410;53.046;10.512;2022-09-09T16:14:19;2.25;;;0.70;;
22486;SDS011;11410;53.046;10.512;2022-09-09T16:26:46;1.38;;;0.52;;
22486;SDS011;11410;53.046;10.512;2022-09-09T16:30:47;1.27;;;0.52;;
22486;SDS011;11410;53.046;10.512;2022-09-09T16:34:49;1.23;;;0.70;;
22486;SDS011;11410;53.046;10.512;2022-09-09T16:38:53;3.90;;;0.93;;
22486;SDS011;11410;53.046;10.512;2022-09-09T16:42:56;0.75;;;0.60;;
22486;SDS011;11410;53.046;10.512;2022-09-09T16:46:57;0.75;;;0.75;;
22486;SDS011;11410;53.046;10.512;2022-09-09T16:51:02;1.33;;;1.05;;
22486;SDS011;11410;53.046;10.512;2022-09-09T16:55:05;0.45;;;0.45;;
22486;SDS011;11410;53.046;10.512;2022-09-09T17:03:11;0.68;;;0.60;;
22486;SDS011;11410;53.046;10.512;2022-09-09T17:07:12;2.65;;;0.80;;
22486;SDS011;11410;53.046;10.512;2022-09-09T17:11:15;1.55;;;1.45;;
22486;SDS011;11410;53.046;10.512;2022-09-09T17:15:16;0.98;;;0.88;;
22486;SDS011;11410;53.046;10.512;2022-09-09T17:19:19;0.98;;;0.45;;
22486;SDS011;11410;53.046;10.512;2022-09-09T17:23:20;0.50;;;0.50;;
22486;SDS011;11410;53.046;10.512;2022-09-09T17:27:21;1.17;;;1.08;;
22486;SDS011;11410;53.046;10.512;2022-09-09T17:31:22;1.08;;;0.73;;
22486;SDS011;11410;53.046;10.512;2022-09-09T17:35:24;1.48;;;0.82;;
22486;SDS011;11410;53.046;10.512;2022-09-09T17:43:27;1.17;;;1.10;;
22486;SDS011;11410;53.046;10.512;2022-09-09T17:47:28;2.05;;;0.93;;
22486;SDS011;11410;53.046;10.512;2022-09-09T17:51:32;0.63;;;0.63;;
22486;SDS011;11410;53.046;10.512;2022-09-09T17:55:34;4.13;;;0.93;;
22486;SDS011;11410;53.046;10.512;2022-09-09T18:07:39;0.63;;;0.63;;
22486;SDS011;11410;53.046;10.512;2022-09-09T18:15:45;0.55;;;0.55;;
22486;SDS011;11410;53.046;10.512;2022-09-09T18:19:50;1.00;;;0.73;;
22486;SDS011;11410;53.046;10.512;2022-09-09T18:23:51;0.60;;;0.60;;
22486;SDS011;11410;53.046;10.512;2022-09-09T18:32:35;0.65;;;0.57;;
22486;SDS011;11410;53.046;10.512;2022-09-09T18:36:40;1.10;;;1.05;;
22486;SDS011;11410;53.046;10.512;2022-09-09T18:40:42;0.75;;;0.75;;
22486;SDS011;11410;53.046;10.512;2022-09-09T18:44:46;0.50;;;0.50;;
22486;SDS011;11410;53.046;10.512;2022-09-09T18:48:48;1.05;;;1.02;;
22486;SDS011;11410;53.046;10.512;2022-09-09T18:52:50;0.90;;;0.90;;
22486;SDS011;11410;53.046;10.512;2022-09-09T18:56:52;0.60;;;0.55;;
22486;SDS011;11410;53.046;10.512;2022-09-09T19:01:02;0.47;;;0.47;;
22486;SDS011;11410;53.046;10.512;2022-09-09T19:05:07;0.40;;;0.40;;
22486;SDS011;11410;53.046;10.512;2022-09-09T19:09:10;0.90;;;0.65;;
22486;SDS011;11410;53.046;10.512;2022-09-09T19:13:12;0.73;;;0.73;;
22486;SDS011;11410;53.046;10.512;2022-09-09T19:17:14;1.90;;;0.77;;
22486;SDS011;11410;53.046;10.512;2022-09-09T19:25:22;0.70;;;0.60;;
22486;SDS011;11410;53.046;10.512;2022-09-09T19:29:24;0.60;;;0.60;;
22486;SDS011;11410;53.046;10.512;2022-09-09T19:33:26;0.73;;;0.73;;
22486;SDS011;11410;53.046;10.512;2022-09-09T19:41:29;1.52;;;0.63;;
22486;SDS011;11410;53.046;10.512;2022-09-09T19:45:31;1.77;;;0.95;;
22486;SDS011;11410;53.046;10.512;2022-09-09T19:49:33;0.90;;;0.90;;
22486;SDS011;11410;53.046;10.512;2022-09-09T19:53:37;0.50;;;0.50;;
22486;SDS011;11410;53.046;10.512;2022-09-09T19:57:39;0.52;;;0.52;;
22486;SDS011;11410;53.046;10.512;2022-09-09T20:01:42;0.50;;;0.40;;
22486;SDS011;11410;53.046;10.512;2022-09-09T20:05:45;0.50;;;0.50;;
22486;SDS011;11410;53.046;10.512;2022-09-09T20:09:49;0.40;;;0.40;;
22486;SDS011;11410;53.046;10.512;2022-09-09T20:13:50;3.63;;;0.52;;
22486;SDS011;11410;53.046;10.512;2022-09-09T20:17:52;0.43;;;0.43;;
22486;SDS011;11410;53.046;10.512;2022-09-09T20:21:54;1.10;;;0.70;;
22486;SDS011;11410;53.046;10.512;2022-09-09T20:25:59;0.57;;;0.55;;
22486;SDS011;11410;53.046;10.512;2022-09-09T20:30:02;0.90;;;0.70;;
22486;SDS011;11410;53.046;10.512;2022-09-09T20:34:03;0.60;;;0.60;;
22486;SDS011;11410;53.046;10.512;2022-09-09T20:38:06;0.60;;;0.60;;
22486;SDS011;11410;53.046;10.512;2022-09-09T20:42:08;1.00;;;1.00;;
22486;SDS011;11410;53.046;10.512;2022-09-09T20:46:09;0.95;;;0.80;;
22486;SDS011;11410;53.046;10.512;2022-09-09T20:50:10;1.05;;;0.80;;
22486;SDS011;11410;53.046;10.512;2022-09-09T20:54:21;2.00;;;0.90;;
22486;SDS011;11410;53.046;10.512;2022-09-09T21:02:25;0.93;;;0.60;;
22486;SDS011;11410;53.046;10.512;2022-09-09T21:06:26;0.60;;;0.60;;
22486;SDS011;11410;53.046;10.512;2022-09-09T21:10:27;6.53;;;0.90;;
22486;SDS011;11410;53.046;10.512;2022-09-09T21:14:32;1.40;;;1.10;;
22486;SDS011;11410;53.046;10.512;2022-09-09T21:22:35;1.45;;;1.35;;
22486;SDS011;11410;53.046;10.512;2022-09-09T21:26:36;0.77;;;0.75;;
22486;SDS011;11410;53.046;10.512;2022-09-09T21:30:38;0.88;;;0.88;;
22486;SDS011;11410;53.046;10.512;2022-09-09T21:34:44;1.20;;;0.65;;
22486;SDS011;11410;53.046;10.512;2022-09-09T21:42:47;0.43;;;0.43;;
22486;SDS011;11410;53.046;10.512;2022-09-09T21:46:48;1.00;;;0.85;;
22486;SDS011;11410;53.046;10.512;2022-09-09T21:50:51;0.77;;;0.77;;
22486;SDS011;11410;53.046;10.512;2022-09-09T21:54:52;2.78;;;0.80;;
22486;SDS011;11410;53.046;10.512;2022-09-09T21:58:55;0.60;;;0.60;;
22486;SDS011;11410;53.046;10.512;2022-09-09T22:03:00;0.55;;;0.55;;
22486;SDS011;11410;53.046;10.512;2022-09-09T22:07:02;0.90;;;0.73;;
22486;SDS011;11410;53.046;10.512;2022-09-09T22:15:05;0.50;;;0.50;;
22486;SDS011;11410;53.046;10.512;2022-09-09T22:19:07;1.27;;;0.80;;
22486;SDS011;11410;53.046;10.512;2022-09-09T22:23:09;0.52;;;0.52;;
22486;SDS011;11410;53.046;10.512;2022-09-09T22:27:11;0.82;;;0.50;;
22486;SDS011;11410;53.046;10.512;2022-09-09T22:31:12;1.35;;;0.95;;
22486;SDS011;11410;53.046;10.512;2022-09-09T22:35:13;0.85;;;0.80;;
22486;SDS011;11410;53.046;10.512;2022-09-09T22:39:15;0.50;;;0.50;;
22486;SDS011;11410;53.046;10.512;2022-09-09T22:43:17;1.27;;;0.95;;
22486;SDS011;11410;53.046;10.512;2022-09-09T22:47:19;0.50;;;0.40;;
22486;SDS011;11410;53.046;10.512;2022-09-09T22:51:21;0.38;;;0.38;;
22486;SDS011;11410;53.046;10.512;2022-09-09T22:55:22;4.70;;;1.33;;
22486;SDS011;11410;53.046;10.512;2022-09-09T22:59:23;1.13;;;1.02;;
22486;SDS011;11410;53.046;10.512;2022-09-09T23:03:25;0.60;;;0.60;;
22486;SDS011;11410;53.046;10.512;2022-09-09T23:07:26;1.27;;;0.93;;
22486;SDS011;11410;53.046;10.512;2022-09-09T23:11:29;0.88;;;0.88;;
22486;SDS011;11410;53.046;10.512;2022-09-09T23:15:31;1.38;;;0.80;;
22486;SDS011;11410;53.046;10.512;2022-09-09T23:19:32;2.53;;;0.82;;
22486;SDS011;11410;53.046;10.512;2022-09-09T23:23:34;0.77;;;0.77;;
22486;SDS011;11410;53.046;10.512;2022-09-09T23:27:35;1.42;;;1.33;;
22486;SDS011;11410;53.046;10.512;2022-09-09T23:31:38;0.82;;;0.57;;
22486;SDS011;11410;53.046;10.512;2022-09-09T23:35:40;1.17;;;0.63;;
22486;SDS011;11410;53.046;10.512;2022-09-09T23:39:41;0.60;;;0.60;;
22486;SDS011;11410;53.046;10.512;2022-09-09T23:43:43;1.15;;;1.00;;
22486;SDS011;11410;53.046;10.512;2022-09-09T23:51:46;0.57;;;0.52;;
22486;SDS011;11410;53.046;10.512;2022-09-09T23:55:49;0.95;;;0.43;;
22486;SDS011;11410;53.046;10.512;2022-09-09T23:59:50;1.95;;;1.10;;
